Relevés horaires Gornergrat (Suisse)


Relevés horaires à Gornergrat - Mardi 09 Févr. 2021
Heure UTC1 Température [°C] Vent [km/h] Hum. [%] Pres.4 [hPa] Visi. [Km] Nébu. [octa] Préc.5 [mm] Cond.
2m. Res. Ros. Dir.2 Vit. Moy. Raf.3
23:00 -8.9 -16.2 -14.0 N 18.5 -- 29.6 66 700(-1.1/3h) -- -- -- --
22:00 -8.7 -14.6 -15.1 ONO 13.0 -- 33.3 60 700(-0.7/3h) -- -- -- --
21:00 -8.7 -13.5 -17.4 NNE 9.3 -- 48.2 49 700(-0.3/3h) -- -- -- --
20:00 -8.6 -15.8 -18.2 O 18.5 -- 38.9 46 700(0.0/3h) -- -- -- --
19:00 -8.2 -16.9 -16.2 S 27.8 -- 48.2 52 700(0.2/3h) -- -- -- --
18:00 -7.9 -15.6 -16.4 OSO 22.2 -- 37.0 50 700(-0.1/3h) -- -- -- --
17:00 -6.4 -10 -18.1 SSO 7.4 -- 18.5 39 700(-0.1/3h) -- -- -- --
16:00 -6.3 -11.7 -16.8 OSO 13.0 -- 37.0 43 700(0.2/3h) -- -- -- --
15:00 -5.4 -11 -14.7 OSO 14.8 -- 33.3 48 700(0.5/3h) -- -- -- --
14:00 -6.3 -11.2 -17.7 SSE 11.1 -- 24.1 40 700(0.7/3h) -- -- -- --
13:00 -6.6 -11.5 -19.3 SSE 11.1 -- 22.2 36 700(0.6/3h) -- -- -- --
12:00 -7.4 -11.2 -16.1 S 7.4 -- 48.2 50 700(0.7/3h) -- -- -- --
11:00 -7.2 -13.7 -17.7 OSO 16.7 -- 44.4 43 700(0.8/3h) -- -- -- --
10:00 -7.8 -12.4 -14.8 SSO 9.3 -- 25.9 57 700(0.9/3h) -- -- -- --
09:00 -8.6 -11.7 -13.9 SSO 5.6 -- 38.9 65 700(1.0/3h) -- -- -- --
08:00 -8.6 -13.9 -14.2 O 11.1 -- 25.9 64 700(1.2/3h) -- -- -- --
07:00 -8.9 -16.2 -13.4 OSO 18.5 -- 38.9 70 700(0.9/3h) -- -- -- --
06:00 -9.0 -15 -12.8 SO 13.0 -- 38.9 74 700(0.5/3h) -- -- -- --
05:00 -8.8 -15.2 -13.6 SO 14.8 -- 31.5 68 700(0.1/3h) -- -- -- --
04:00 -8.5 -14.8 -14.3 SSO 14.8 -- 29.6 63 700(-0.1/3h) -- -- -- --
03:00 -8.6 -15 -13.6 SO 14.8 -- 38.9 67 700(0.0/3h) -- -- -- --
02:00 -8.2 -13.5 -13.9 SSO 11.1 -- 25.9 63 700(0.0/3h) -- -- -- --
01:00 -7.9 -14.5 -13.6 SSO 16.7 -- 38.9 63 700(0.1/3h) -- -- -- --
00:00 -8.7 -15.9 -13.1 SSO 18.5 -- 44.4 70 700(0.3/3h) -- -- -- --

1 Coordinated Universal Time. Actuellement il est 22:00 locale et 20:00 UTC.

2 Le vent souffle depuis la direction indiquée vers la direction oposée.

3 Les rafales max. sont disponible 40 min après l'heure du relevé.

4 Pour les stations d'altitude (plus de 600m) le géopotentiel du niveau le plus proche de la pression obligatoire est indiqué.

5 Les stations disposant d'un diffuseur peuvent indiquer "trace". Cela signifie que des précipitations ont touchés le sol mais que la quantité est inférieure à 0.1 mm.

Copyright

Les données affichées sur cette page sont la propriété exclusive de Météo Suisse.

Récapitulatif de la journée
Température [°C] Vent [km/h] Ensoleillement4 [h] Precipitations totale5 [mm] Pression [Hpa]
Min1 Max.2 Moy.3 Max. Min Max.
-9.9 -5.3 0 48.2 7 h 24 min 0 700.0 700.0

1 Température minimale relevée entre 18:00 UTC la veille et 18:00 UTC le jour donné.

2 Température maximale relevée entre 06:00 UTC le jour donné et 06:00 UTC le lendemain.

3 Vent moyen de la journée basé sur les relevés horaires.

4 Ensoleillement en heures relevé entre 06:00 UTC la veille et 06:00 UTC le jour donné.

5 Précipitations totales tombées entre 06:00 UTC la jour donné et 06:00 UTC le lendemain.

Graphiques horaires